sensor_id;sensor_type;location;lat;lon;timestamp;P1;durP1;ratioP1;P2;durP2;ratioP2
52386;SDS011;38317;53.084;6.960;2022-09-09T00:01:58;6.57;;;3.75;;
52386;SDS011;38317;53.084;6.960;2022-09-09T00:04:34;5.32;;;3.25;;
52386;SDS011;38317;53.084;6.960;2022-09-09T00:07:22;6.93;;;3.70;;
52386;SDS011;38317;53.084;6.960;2022-09-09T00:10:06;5.63;;;3.67;;
52386;SDS011;38317;53.084;6.960;2022-09-09T00:15:38;6.25;;;4.00;;
52386;SDS011;38317;53.084;6.960;2022-09-09T00:20:58;6.53;;;3.88;;
52386;SDS011;38317;53.084;6.960;2022-09-09T00:23:38;7.57;;;4.18;;
52386;SDS011;38317;53.084;6.960;2022-09-09T00:31:33;8.90;;;4.30;;
52386;SDS011;38317;53.084;6.960;2022-09-09T00:34:21;7.35;;;4.68;;
52386;SDS011;38317;53.084;6.960;2022-09-09T00:36:50;7.35;;;4.30;;
52386;SDS011;38317;53.084;6.960;2022-09-09T00:39:27;6.32;;;3.85;;
52386;SDS011;38317;53.084;6.960;2022-09-09T00:42:04;7.85;;;3.83;;
52386;SDS011;38317;53.084;6.960;2022-09-09T00:44:46;6.05;;;3.95;;
52386;SDS011;38317;53.084;6.960;2022-09-09T00:55:42;9.27;;;3.78;;
52386;SDS011;38317;53.084;6.960;2022-09-09T00:58:26;6.00;;;3.25;;
52386;SDS011;38317;53.084;6.960;2022-09-09T01:01:11;6.72;;;3.60;;
52386;SDS011;38317;53.084;6.960;2022-09-09T01:03:54;5.95;;;3.42;;
52386;SDS011;38317;53.084;6.960;2022-09-09T01:06:29;6.05;;;3.50;;
52386;SDS011;38317;53.084;6.960;2022-09-09T01:11:45;7.22;;;4.15;;
52386;SDS011;38317;53.084;6.960;2022-09-09T01:17:01;7.63;;;3.67;;
52386;SDS011;38317;53.084;6.960;2022-09-09T01:25:07;8.32;;;4.20;;
52386;SDS011;38317;53.084;6.960;2022-09-09T01:27:43;5.40;;;3.10;;
52386;SDS011;38317;53.084;6.960;2022-09-09T01:30:12;6.78;;;3.42;;
52386;SDS011;38317;53.084;6.960;2022-09-09T01:32:47;5.32;;;3.40;;
52386;SDS011;38317;53.084;6.960;2022-09-09T01:37:56;4.97;;;3.25;;
52386;SDS011;38317;53.084;6.960;2022-09-09T01:40:23;6.88;;;4.28;;
52386;SDS011;38317;53.084;6.960;2022-09-09T01:42:49;6.15;;;3.60;;
52386;SDS011;38317;53.084;6.960;2022-09-09T01:45:16;7.28;;;4.10;;
52386;SDS011;38317;53.084;6.960;2022-09-09T01:47:42;8.52;;;5.07;;
52386;SDS011;38317;53.084;6.960;2022-09-09T01:50:10;7.70;;;4.47;;
52386;SDS011;38317;53.084;6.960;2022-09-09T01:52:38;8.57;;;4.10;;
52386;SDS011;38317;53.084;6.960;2022-09-09T01:55:04;6.85;;;4.10;;
52386;SDS011;38317;53.084;6.960;2022-09-09T01:57:33;9.00;;;4.75;;
52386;SDS011;38317;53.084;6.960;2022-09-09T02:00:15;6.32;;;3.33;;
52386;SDS011;38317;53.084;6.960;2022-09-09T02:02:48;6.20;;;3.60;;
52386;SDS011;38317;53.084;6.960;2022-09-09T02:08:09;6.72;;;3.72;;
52386;SDS011;38317;53.084;6.960;2022-09-09T02:13:19;8.52;;;3.75;;
52386;SDS011;38317;53.084;6.960;2022-09-09T02:15:52;6.30;;;3.40;;
52386;SDS011;38317;53.084;6.960;2022-09-09T02:18:42;8.10;;;3.70;;
52386;SDS011;38317;53.084;6.960;2022-09-09T02:21:16;7.38;;;3.90;;
52386;SDS011;38317;53.084;6.960;2022-09-09T02:23:43;5.05;;;2.85;;
52386;SDS011;38317;53.084;6.960;2022-09-09T02:26:12;7.05;;;3.15;;
52386;SDS011;38317;53.084;6.960;2022-09-09T02:28:44;5.03;;;2.65;;
52386;SDS011;38317;53.084;6.960;2022-09-09T02:31:12;4.88;;;2.83;;
52386;SDS011;38317;53.084;6.960;2022-09-09T02:33:43;6.50;;;3.40;;
52386;SDS011;38317;53.084;6.960;2022-09-09T02:36:12;6.35;;;3.08;;
52386;SDS011;38317;53.084;6.960;2022-09-09T02:38:45;7.35;;;3.47;;
52386;SDS011;38317;53.084;6.960;2022-09-09T02:41:35;5.93;;;3.00;;
52386;SDS011;38317;53.084;6.960;2022-09-09T02:44:10;5.57;;;2.42;;
52386;SDS011;38317;53.084;6.960;2022-09-09T02:57:52;5.15;;;3.20;;
52386;SDS011;38317;53.084;6.960;2022-09-09T03:00:25;5.15;;;2.50;;
52386;SDS011;38317;53.084;6.960;2022-09-09T03:02:52;5.85;;;3.13;;
52386;SDS011;38317;53.084;6.960;2022-09-09T03:05:19;4.57;;;2.58;;
52386;SDS011;38317;53.084;6.960;2022-09-09T03:07:46;6.97;;;2.75;;
52386;SDS011;38317;53.084;6.960;2022-09-09T03:10:12;5.18;;;2.58;;
52386;SDS011;38317;53.084;6.960;2022-09-09T03:12:38;3.53;;;2.03;;
52386;SDS011;38317;53.084;6.960;2022-09-09T03:15:04;4.97;;;2.83;;
52386;SDS011;38317;53.084;6.960;2022-09-09T03:17:31;4.82;;;2.65;;
52386;SDS011;38317;53.084;6.960;2022-09-09T03:19:57;4.57;;;2.45;;
52386;SDS011;38317;53.084;6.960;2022-09-09T03:22:24;5.25;;;2.20;;
52386;SDS011;38317;53.084;6.960;2022-09-09T03:24:50;4.18;;;2.10;;
52386;SDS011;38317;53.084;6.960;2022-09-09T03:27:16;8.60;;;2.75;;
52386;SDS011;38317;53.084;6.960;2022-09-09T03:29:44;4.88;;;2.55;;
52386;SDS011;38317;53.084;6.960;2022-09-09T03:32:13;5.00;;;2.10;;
52386;SDS011;38317;53.084;6.960;2022-09-09T03:34:42;5.47;;;2.45;;
52386;SDS011;38317;53.084;6.960;2022-09-09T03:37:08;7.90;;;2.50;;
52386;SDS011;38317;53.084;6.960;2022-09-09T03:39:34;5.53;;;2.20;;
52386;SDS011;38317;53.084;6.960;2022-09-09T03:42:00;5.00;;;1.92;;
52386;SDS011;38317;53.084;6.960;2022-09-09T03:44:29;5.20;;;1.80;;
52386;SDS011;38317;53.084;6.960;2022-09-09T03:46:55;4.13;;;1.75;;
52386;SDS011;38317;53.084;6.960;2022-09-09T03:49:21;4.85;;;1.58;;
52386;SDS011;38317;53.084;6.960;2022-09-09T03:51:47;4.47;;;1.67;;
52386;SDS011;38317;53.084;6.960;2022-09-09T03:54:13;4.75;;;1.67;;
52386;SDS011;38317;53.084;6.960;2022-09-09T03:56:39;3.63;;;1.67;;
52386;SDS011;38317;53.084;6.960;2022-09-09T03:59:06;3.35;;;1.75;;
52386;SDS011;38317;53.084;6.960;2022-09-09T04:01:33;3.15;;;1.70;;
52386;SDS011;38317;53.084;6.960;2022-09-09T04:03:59;6.35;;;2.17;;
52386;SDS011;38317;53.084;6.960;2022-09-09T04:06:27;4.57;;;1.75;;
52386;SDS011;38317;53.084;6.960;2022-09-09T04:08:53;3.33;;;1.80;;
52386;SDS011;38317;53.084;6.960;2022-09-09T04:11:20;3.35;;;1.75;;
52386;SDS011;38317;53.084;6.960;2022-09-09T04:13:46;5.22;;;1.80;;
52386;SDS011;38317;53.084;6.960;2022-09-09T04:16:12;3.60;;;1.42;;
52386;SDS011;38317;53.084;6.960;2022-09-09T04:18:39;4.20;;;1.77;;
52386;SDS011;38317;53.084;6.960;2022-09-09T04:21:05;3.60;;;2.00;;
52386;SDS011;38317;53.084;6.960;2022-09-09T04:23:33;4.57;;;2.15;;
52386;SDS011;38317;53.084;6.960;2022-09-09T04:26:00;5.55;;;2.47;;
52386;SDS011;38317;53.084;6.960;2022-09-09T04:28:28;5.10;;;2.50;;
52386;SDS011;38317;53.084;6.960;2022-09-09T04:30:55;5.65;;;2.80;;
52386;SDS011;38317;53.084;6.960;2022-09-09T04:33:24;7.18;;;3.75;;
52386;SDS011;38317;53.084;6.960;2022-09-09T04:35:53;7.28;;;3.20;;
52386;SDS011;38317;53.084;6.960;2022-09-09T04:38:19;5.03;;;3.13;;
52386;SDS011;38317;53.084;6.960;2022-09-09T04:40:48;5.90;;;3.30;;
52386;SDS011;38317;53.084;6.960;2022-09-09T04:43:16;7.10;;;3.33;;
52386;SDS011;38317;53.084;6.960;2022-09-09T04:45:46;7.07;;;3.20;;
52386;SDS011;38317;53.084;6.960;2022-09-09T04:48:13;5.28;;;3.17;;
52386;SDS011;38317;53.084;6.960;2022-09-09T04:50:39;5.72;;;3.42;;
52386;SDS011;38317;53.084;6.960;2022-09-09T04:53:07;5.50;;;2.67;;
52386;SDS011;38317;53.084;6.960;2022-09-09T04:55:33;4.43;;;2.85;;
52386;SDS011;38317;53.084;6.960;2022-09-09T04:58:06;5.18;;;3.10;;
52386;SDS011;38317;53.084;6.960;2022-09-09T05:03:04;5.00;;;2.13;;
52386;SDS011;38317;53.084;6.960;2022-09-09T05:05:31;4.03;;;2.25;;
52386;SDS011;38317;53.084;6.960;2022-09-09T05:08:02;4.20;;;2.25;;
52386;SDS011;38317;53.084;6.960;2022-09-09T05:10:32;4.55;;;2.30;;
52386;SDS011;38317;53.084;6.960;2022-09-09T05:12:59;3.63;;;2.22;;
52386;SDS011;38317;53.084;6.960;2022-09-09T05:15:25;4.70;;;2.47;;
52386;SDS011;38317;53.084;6.960;2022-09-09T05:17:51;3.15;;;1.90;;
52386;SDS011;38317;53.084;6.960;2022-09-09T05:20:18;6.53;;;2.63;;
52386;SDS011;38317;53.084;6.960;2022-09-09T05:22:44;3.75;;;1.80;;
52386;SDS011;38317;53.084;6.960;2022-09-09T05:25:09;3.72;;;1.98;;
52386;SDS011;38317;53.084;6.960;2022-09-09T05:27:35;3.83;;;1.98;;
52386;SDS011;38317;53.084;6.960;2022-09-09T05:30:01;4.20;;;2.42;;
52386;SDS011;38317;53.084;6.960;2022-09-09T05:32:29;5.65;;;1.90;;
52386;SDS011;38317;53.084;6.960;2022-09-09T05:34:57;3.88;;;2.13;;
52386;SDS011;38317;53.084;6.960;2022-09-09T05:37:24;4.63;;;2.20;;
52386;SDS011;38317;53.084;6.960;2022-09-09T05:39:50;5.47;;;2.53;;
52386;SDS011;38317;53.084;6.960;2022-09-09T05:42:16;4.43;;;2.13;;
52386;SDS011;38317;53.084;6.960;2022-09-09T05:44:42;6.35;;;2.60;;
52386;SDS011;38317;53.084;6.960;2022-09-09T05:47:10;5.22;;;2.15;;
52386;SDS011;38317;53.084;6.960;2022-09-09T05:49:36;4.78;;;2.38;;
52386;SDS011;38317;53.084;6.960;2022-09-09T05:52:02;7.85;;;2.60;;
52386;SDS011;38317;53.084;6.960;2022-09-09T05:54:29;5.28;;;2.67;;
52386;SDS011;38317;53.084;6.960;2022-09-09T05:56:55;6.55;;;2.25;;
52386;SDS011;38317;53.084;6.960;2022-09-09T05:59:20;4.30;;;2.05;;
52386;SDS011;38317;53.084;6.960;2022-09-09T06:01:48;7.50;;;2.75;;
52386;SDS011;38317;53.084;6.960;2022-09-09T06:04:14;3.85;;;2.20;;
52386;SDS011;38317;53.084;6.960;2022-09-09T06:06:40;5.57;;;2.33;;
52386;SDS011;38317;53.084;6.960;2022-09-09T06:09:07;4.03;;;2.30;;
52386;SDS011;38317;53.084;6.960;2022-09-09T06:11:38;4.57;;;2.20;;
52386;SDS011;38317;53.084;6.960;2022-09-09T06:14:04;3.25;;;2.08;;
52386;SDS011;38317;53.084;6.960;2022-09-09T06:16:30;4.38;;;2.28;;
52386;SDS011;38317;53.084;6.960;2022-09-09T06:18:59;3.80;;;2.25;;
52386;SDS011;38317;53.084;6.960;2022-09-09T06:21:34;5.78;;;2.70;;
52386;SDS011;38317;53.084;6.960;2022-09-09T06:24:02;5.57;;;3.00;;
52386;SDS011;38317;53.084;6.960;2022-09-09T06:26:32;5.95;;;2.70;;
52386;SDS011;38317;53.084;6.960;2022-09-09T06:29:03;7.45;;;2.92;;
52386;SDS011;38317;53.084;6.960;2022-09-09T06:31:30;5.60;;;3.25;;
52386;SDS011;38317;53.084;6.960;2022-09-09T06:33:59;5.97;;;2.60;;
52386;SDS011;38317;53.084;6.960;2022-09-09T06:36:30;4.45;;;2.40;;
52386;SDS011;38317;53.084;6.960;2022-09-09T06:38:57;5.63;;;2.50;;
52386;SDS011;38317;53.084;6.960;2022-09-09T06:41:24;8.55;;;3.30;;
52386;SDS011;38317;53.084;6.960;2022-09-09T06:43:52;5.97;;;3.05;;
52386;SDS011;38317;53.084;6.960;2022-09-09T06:46:19;5.40;;;2.88;;
52386;SDS011;38317;53.084;6.960;2022-09-09T06:48:46;6.38;;;3.00;;
52386;SDS011;38317;53.084;6.960;2022-09-09T06:51:14;4.68;;;2.47;;
52386;SDS011;38317;53.084;6.960;2022-09-09T06:53:40;8.15;;;2.90;;
52386;SDS011;38317;53.084;6.960;2022-09-09T06:58:44;5.43;;;3.20;;
52386;SDS011;38317;53.084;6.960;2022-09-09T07:01:11;4.90;;;2.47;;
52386;SDS011;38317;53.084;6.960;2022-09-09T07:03:39;4.95;;;3.05;;
52386;SDS011;38317;53.084;6.960;2022-09-09T07:06:06;3.63;;;2.25;;
52386;SDS011;38317;53.084;6.960;2022-09-09T07:08:34;6.38;;;2.92;;
52386;SDS011;38317;53.084;6.960;2022-09-09T07:11:03;3.92;;;2.50;;
52386;SDS011;38317;53.084;6.960;2022-09-09T07:13:30;5.47;;;2.90;;
52386;SDS011;38317;53.084;6.960;2022-09-09T07:16:07;4.85;;;2.50;;
52386;SDS011;38317;53.084;6.960;2022-09-09T07:18:35;5.55;;;2.67;;
52386;SDS011;38317;53.084;6.960;2022-09-09T07:21:02;6.60;;;2.40;;
52386;SDS011;38317;53.084;6.960;2022-09-09T07:23:28;5.60;;;3.45;;
52386;SDS011;38317;53.084;6.960;2022-09-09T07:25:55;4.28;;;2.60;;
52386;SDS011;38317;53.084;6.960;2022-09-09T07:28:24;4.35;;;2.38;;
52386;SDS011;38317;53.084;6.960;2022-09-09T07:30:57;5.18;;;2.80;;
52386;SDS011;38317;53.084;6.960;2022-09-09T07:33:28;5.72;;;2.90;;
52386;SDS011;38317;53.084;6.960;2022-09-09T07:36:01;5.53;;;2.60;;
52386;SDS011;38317;53.084;6.960;2022-09-09T07:38:33;4.30;;;2.35;;
52386;SDS011;38317;53.084;6.960;2022-09-09T07:41:06;5.15;;;2.30;;
52386;SDS011;38317;53.084;6.960;2022-09-09T07:43:37;5.57;;;2.45;;
52386;SDS011;38317;53.084;6.960;2022-09-09T07:46:07;4.85;;;2.13;;
52386;SDS011;38317;53.084;6.960;2022-09-09T07:48:34;6.00;;;2.80;;
52386;SDS011;38317;53.084;6.960;2022-09-09T07:51:05;4.10;;;2.33;;
52386;SDS011;38317;53.084;6.960;2022-09-09T07:53:32;4.85;;;2.30;;
52386;SDS011;38317;53.084;6.960;2022-09-09T07:56:03;6.38;;;2.63;;
52386;SDS011;38317;53.084;6.960;2022-09-09T07:58:30;4.13;;;2.28;;
52386;SDS011;38317;53.084;6.960;2022-09-09T08:00:56;6.65;;;2.95;;
52386;SDS011;38317;53.084;6.960;2022-09-09T08:03:22;3.35;;;1.70;;
52386;SDS011;38317;53.084;6.960;2022-09-09T08:05:48;5.30;;;2.78;;
52386;SDS011;38317;53.084;6.960;2022-09-09T08:08:14;5.82;;;2.20;;
52386;SDS011;38317;53.084;6.960;2022-09-09T08:10:41;3.70;;;1.90;;
52386;SDS011;38317;53.084;6.960;2022-09-09T08:13:08;4.07;;;2.50;;
52386;SDS011;38317;53.084;6.960;2022-09-09T08:15:34;5.80;;;2.50;;
52386;SDS011;38317;53.084;6.960;2022-09-09T08:18:00;4.68;;;2.38;;
52386;SDS011;38317;53.084;6.960;2022-09-09T08:20:25;5.05;;;2.03;;
52386;SDS011;38317;53.084;6.960;2022-09-09T08:22:52;5.07;;;2.50;;
52386;SDS011;38317;53.084;6.960;2022-09-09T08:25:18;4.47;;;2.05;;
52386;SDS011;38317;53.084;6.960;2022-09-09T08:27:43;6.35;;;1.90;;
52386;SDS011;38317;53.084;6.960;2022-09-09T08:30:10;4.63;;;1.83;;
52386;SDS011;38317;53.084;6.960;2022-09-09T08:32:36;3.80;;;1.80;;
52386;SDS011;38317;53.084;6.960;2022-09-09T08:35:02;3.45;;;2.00;;
52386;SDS011;38317;53.084;6.960;2022-09-09T08:37:28;4.95;;;2.30;;
52386;SDS011;38317;53.084;6.960;2022-09-09T08:39:54;3.53;;;2.15;;
52386;SDS011;38317;53.084;6.960;2022-09-09T08:45:19;3.03;;;1.90;;
52386;SDS011;38317;53.084;6.960;2022-09-09T08:48:20;5.18;;;2.05;;
52386;SDS011;38317;53.084;6.960;2022-09-09T08:50:49;4.68;;;2.05;;
52386;SDS011;38317;53.084;6.960;2022-09-09T08:58:38;5.20;;;2.13;;
52386;SDS011;38317;53.084;6.960;2022-09-09T09:04:02;4.57;;;1.77;;
52386;SDS011;38317;53.084;6.960;2022-09-09T09:07:02;4.65;;;2.00;;
52386;SDS011;38317;53.084;6.960;2022-09-09T09:12:21;4.72;;;1.85;;
52386;SDS011;38317;53.084;6.960;2022-09-09T09:14:49;3.90;;;1.90;;
52386;SDS011;38317;53.084;6.960;2022-09-09T09:17:19;5.53;;;2.22;;
52386;SDS011;38317;53.084;6.960;2022-09-09T09:19:47;3.85;;;1.70;;
52386;SDS011;38317;53.084;6.960;2022-09-09T09:22:16;2.95;;;1.83;;
52386;SDS011;38317;53.084;6.960;2022-09-09T09:25:03;4.40;;;1.83;;
52386;SDS011;38317;53.084;6.960;2022-09-09T09:30:16;5.43;;;1.90;;
52386;SDS011;38317;53.084;6.960;2022-09-09T09:35:28;5.72;;;1.60;;
52386;SDS011;38317;53.084;6.960;2022-09-09T09:37:53;4.60;;;1.63;;
52386;SDS011;38317;53.084;6.960;2022-09-09T09:40:21;5.32;;;1.50;;
52386;SDS011;38317;53.084;6.960;2022-09-09T09:42:49;6.70;;;2.20;;
52386;SDS011;38317;53.084;6.960;2022-09-09T09:45:34;4.85;;;1.75;;
52386;SDS011;38317;53.084;6.960;2022-09-09T09:48:08;5.03;;;1.88;;
52386;SDS011;38317;53.084;6.960;2022-09-09T09:50:40;4.57;;;1.50;;
52386;SDS011;38317;53.084;6.960;2022-09-09T09:53:38;4.85;;;1.30;;
52386;SDS011;38317;53.084;6.960;2022-09-09T09:56:04;6.10;;;1.30;;
52386;SDS011;38317;53.084;6.960;2022-09-09T09:58:33;5.30;;;1.33;;
52386;SDS011;38317;53.084;6.960;2022-09-09T10:01:22;5.20;;;1.00;;
52386;SDS011;38317;53.084;6.960;2022-09-09T10:03:54;5.30;;;1.63;;
52386;SDS011;38317;53.084;6.960;2022-09-09T10:06:29;5.47;;;1.40;;
52386;SDS011;38317;53.084;6.960;2022-09-09T10:08:59;4.25;;;0.90;;
52386;SDS011;38317;53.084;6.960;2022-09-09T10:14:21;3.40;;;1.10;;
52386;SDS011;38317;53.084;6.960;2022-09-09T10:19:46;3.57;;;1.00;;
52386;SDS011;38317;53.084;6.960;2022-09-09T10:25:07;4.60;;;1.05;;
52386;SDS011;38317;53.084;6.960;2022-09-09T10:33:01;6.43;;;0.93;;
52386;SDS011;38317;53.084;6.960;2022-09-09T10:38:18;4.85;;;1.00;;
52386;SDS011;38317;53.084;6.960;2022-09-09T10:44:06;5.72;;;0.90;;
52386;SDS011;38317;53.084;6.960;2022-09-09T10:55:41;6.30;;;0.90;;
52386;SDS011;38317;53.084;6.960;2022-09-09T10:58:12;2.17;;;0.60;;
52386;SDS011;38317;53.084;6.960;2022-09-09T11:00:45;1.40;;;0.40;;
52386;SDS011;38317;53.084;6.960;2022-09-09T11:03:20;3.92;;;0.60;;
52386;SDS011;38317;53.084;6.960;2022-09-09T11:05:51;2.58;;;0.70;;
52386;SDS011;38317;53.084;6.960;2022-09-09T11:08:26;3.10;;;0.70;;
52386;SDS011;38317;53.084;6.960;2022-09-09T11:11:04;5.97;;;0.70;;
52386;SDS011;38317;53.084;6.960;2022-09-09T11:18:57;3.78;;;0.57;;
52386;SDS011;38317;53.084;6.960;2022-09-09T11:21:46;4.40;;;0.50;;
52386;SDS011;38317;53.084;6.960;2022-09-09T11:24:20;6.25;;;0.80;;
52386;SDS011;38317;53.084;6.960;2022-09-09T11:26:49;4.55;;;0.50;;
52386;SDS011;38317;53.084;6.960;2022-09-09T11:38:27;3.38;;;0.70;;
52386;SDS011;38317;53.084;6.960;2022-09-09T11:40:58;4.03;;;0.60;;
52386;SDS011;38317;53.084;6.960;2022-09-09T11:43:38;7.70;;;0.90;;
52386;SDS011;38317;53.084;6.960;2022-09-09T11:46:06;3.38;;;0.73;;
52386;SDS011;38317;53.084;6.960;2022-09-09T11:51:29;4.75;;;0.52;;
52386;SDS011;38317;53.084;6.960;2022-09-09T11:54:01;2.05;;;0.60;;
52386;SDS011;38317;53.084;6.960;2022-09-09T12:02:02;4.93;;;0.70;;
52386;SDS011;38317;53.084;6.960;2022-09-09T12:04:53;2.60;;;0.57;;
52386;SDS011;38317;53.084;6.960;2022-09-09T12:07:59;3.92;;;0.85;;
52386;SDS011;38317;53.084;6.960;2022-09-09T12:12:55;2.05;;;0.32;;
52386;SDS011;38317;53.084;6.960;2022-09-09T12:15:32;3.05;;;0.50;;
52386;SDS011;38317;53.084;6.960;2022-09-09T12:17:58;2.63;;;0.50;;
52386;SDS011;38317;53.084;6.960;2022-09-09T12:23:04;3.22;;;0.63;;
52386;SDS011;38317;53.084;6.960;2022-09-09T12:33:51;2.50;;;0.35;;
52386;SDS011;38317;53.084;6.960;2022-09-09T12:38:44;3.45;;;0.60;;
52386;SDS011;38317;53.084;6.960;2022-09-09T12:41:18;3.25;;;0.50;;
52386;SDS011;38317;53.084;6.960;2022-09-09T12:43:49;1.77;;;0.40;;
52386;SDS011;38317;53.084;6.960;2022-09-09T12:46:38;1.85;;;0.40;;
52386;SDS011;38317;53.084;6.960;2022-09-09T12:49:05;1.58;;;0.40;;
52386;SDS011;38317;53.084;6.960;2022-09-09T12:51:49;3.63;;;0.40;;
52386;SDS011;38317;53.084;6.960;2022-09-09T12:54:15;3.25;;;0.50;;
52386;SDS011;38317;53.084;6.960;2022-09-09T12:56:44;1.25;;;0.30;;
52386;SDS011;38317;53.084;6.960;2022-09-09T12:59:22;1.35;;;0.40;;
52386;SDS011;38317;53.084;6.960;2022-09-09T13:01:56;2.90;;;0.70;;
52386;SDS011;38317;53.084;6.960;2022-09-09T13:04:23;2.97;;;0.52;;
52386;SDS011;38317;53.084;6.960;2022-09-09T13:06:49;3.78;;;0.70;;
52386;SDS011;38317;53.084;6.960;2022-09-09T13:09:17;2.90;;;0.30;;
52386;SDS011;38317;53.084;6.960;2022-09-09T13:11:45;2.88;;;0.77;;
52386;SDS011;38317;53.084;6.960;2022-09-09T13:14:26;5.05;;;0.40;;
52386;SDS011;38317;53.084;6.960;2022-09-09T13:17:01;3.08;;;0.40;;
52386;SDS011;38317;53.084;6.960;2022-09-09T13:19:29;1.98;;;0.30;;
52386;SDS011;38317;53.084;6.960;2022-09-09T13:22:10;3.05;;;0.43;;
52386;SDS011;38317;53.084;6.960;2022-09-09T13:24:40;3.40;;;0.50;;
52386;SDS011;38317;53.084;6.960;2022-09-09T13:29:53;2.58;;;0.25;;
52386;SDS011;38317;53.084;6.960;2022-09-09T13:32:23;1.45;;;0.30;;
52386;SDS011;38317;53.084;6.960;2022-09-09T13:34:59;2.97;;;0.40;;
52386;SDS011;38317;53.084;6.960;2022-09-09T13:40:06;1.42;;;0.50;;
52386;SDS011;38317;53.084;6.960;2022-09-09T13:42:42;2.85;;;0.50;;
52386;SDS011;38317;53.084;6.960;2022-09-09T13:45:19;3.20;;;0.45;;
52386;SDS011;38317;53.084;6.960;2022-09-09T13:47:46;3.17;;;0.40;;
52386;SDS011;38317;53.084;6.960;2022-09-09T13:50:20;7.13;;;0.73;;
52386;SDS011;38317;53.084;6.960;2022-09-09T13:52:48;1.95;;;0.30;;
52386;SDS011;38317;53.084;6.960;2022-09-09T13:55:19;1.52;;;0.20;;
52386;SDS011;38317;53.084;6.960;2022-09-09T13:57:53;0.57;;;0.10;;
52386;SDS011;38317;53.084;6.960;2022-09-09T14:00:20;0.98;;;0.20;;
52386;SDS011;38317;53.084;6.960;2022-09-09T14:02:50;1.90;;;0.40;;
52386;SDS011;38317;53.084;6.960;2022-09-09T14:05:17;2.47;;;0.32;;
52386;SDS011;38317;53.084;6.960;2022-09-09T14:07:43;2.72;;;0.32;;
52386;SDS011;38317;53.084;6.960;2022-09-09T14:10:10;1.17;;;0.20;;
52386;SDS011;38317;53.084;6.960;2022-09-09T14:12:36;1.13;;;0.20;;
52386;SDS011;38317;53.084;6.960;2022-09-09T14:15:02;1.15;;;0.30;;
52386;SDS011;38317;53.084;6.960;2022-09-09T14:17:29;2.65;;;0.30;;
52386;SDS011;38317;53.084;6.960;2022-09-09T14:19:56;0.98;;;0.20;;
52386;SDS011;38317;53.084;6.960;2022-09-09T14:22:23;1.27;;;0.20;;
52386;SDS011;38317;53.084;6.960;2022-09-09T14:24:49;5.45;;;0.57;;
52386;SDS011;38317;53.084;6.960;2022-09-09T14:27:16;1.10;;;0.30;;
52386;SDS011;38317;53.084;6.960;2022-09-09T14:29:41;2.10;;;0.30;;
52386;SDS011;38317;53.084;6.960;2022-09-09T14:32:09;2.78;;;0.32;;
52386;SDS011;38317;53.084;6.960;2022-09-09T14:34:36;3.42;;;0.80;;
52386;SDS011;38317;53.084;6.960;2022-09-09T14:37:01;4.95;;;0.38;;
52386;SDS011;38317;53.084;6.960;2022-09-09T14:39:27;4.00;;;0.40;;
52386;SDS011;38317;53.084;6.960;2022-09-09T14:41:53;1.55;;;0.40;;
52386;SDS011;38317;53.084;6.960;2022-09-09T14:44:19;3.55;;;0.40;;
52386;SDS011;38317;53.084;6.960;2022-09-09T14:46:44;3.03;;;0.70;;
52386;SDS011;38317;53.084;6.960;2022-09-09T14:49:10;1.23;;;0.40;;
52386;SDS011;38317;53.084;6.960;2022-09-09T14:51:37;3.15;;;0.80;;
52386;SDS011;38317;53.084;6.960;2022-09-09T14:54:03;2.80;;;0.90;;
52386;SDS011;38317;53.084;6.960;2022-09-09T14:56:31;3.17;;;1.02;;
52386;SDS011;38317;53.084;6.960;2022-09-09T14:58:59;2.28;;;0.50;;
52386;SDS011;38317;53.084;6.960;2022-09-09T15:01:29;1.77;;;0.50;;
52386;SDS011;38317;53.084;6.960;2022-09-09T15:03:57;1.55;;;0.32;;
52386;SDS011;38317;53.084;6.960;2022-09-09T15:06:29;1.77;;;0.43;;
52386;SDS011;38317;53.084;6.960;2022-09-09T15:08:58;2.00;;;0.50;;
52386;SDS011;38317;53.084;6.960;2022-09-09T15:11:29;1.33;;;0.30;;
52386;SDS011;38317;53.084;6.960;2022-09-09T15:13:59;3.80;;;0.45;;
52386;SDS011;38317;53.084;6.960;2022-09-09T15:16:26;0.95;;;0.30;;
52386;SDS011;38317;53.084;6.960;2022-09-09T15:18:54;0.40;;;0.10;;
52386;SDS011;38317;53.084;6.960;2022-09-09T15:21:22;1.00;;;0.20;;
52386;SDS011;38317;53.084;6.960;2022-09-09T15:23:50;1.10;;;0.20;;
52386;SDS011;38317;53.084;6.960;2022-09-09T15:26:16;0.10;;;0.10;;
52386;SDS011;38317;53.084;6.960;2022-09-09T15:28:43;1.95;;;0.20;;
52386;SDS011;38317;53.084;6.960;2022-09-09T15:31:11;1.17;;;0.00;;
52386;SDS011;38317;53.084;6.960;2022-09-09T15:33:51;0.30;;;0.00;;
52386;SDS011;38317;53.084;6.960;2022-09-09T15:36:38;0.95;;;0.10;;
52386;SDS011;38317;53.084;6.960;2022-09-09T15:39:12;0.47;;;0.17;;
52386;SDS011;38317;53.084;6.960;2022-09-09T15:41:41;0.52;;;0.10;;
52386;SDS011;38317;53.084;6.960;2022-09-09T15:44:08;0.08;;;0.08;;
52386;SDS011;38317;53.084;6.960;2022-09-09T15:46:38;1.17;;;0.17;;
52386;SDS011;38317;53.084;6.960;2022-09-09T15:49:13;1.77;;;0.13;;
52386;SDS011;38317;53.084;6.960;2022-09-09T15:51:41;0.15;;;0.00;;
52386;SDS011;38317;53.084;6.960;2022-09-09T15:54:09;0.30;;;0.10;;
52386;SDS011;38317;53.084;6.960;2022-09-09T15:56:37;1.52;;;0.20;;
52386;SDS011;38317;53.084;6.960;2022-09-09T15:59:03;0.88;;;0.20;;
52386;SDS011;38317;53.084;6.960;2022-09-09T16:01:30;0.40;;;0.20;;
52386;SDS011;38317;53.084;6.960;2022-09-09T16:03:57;1.20;;;0.20;;
52386;SDS011;38317;53.084;6.960;2022-09-09T16:06:24;1.02;;;0.20;;
52386;SDS011;38317;53.084;6.960;2022-09-09T16:08:51;1.38;;;0.30;;
52386;SDS011;38317;53.084;6.960;2022-09-09T16:11:22;1.27;;;0.38;;
52386;SDS011;38317;53.084;6.960;2022-09-09T16:13:50;1.52;;;0.20;;
52386;SDS011;38317;53.084;6.960;2022-09-09T16:16:18;1.13;;;0.30;;
52386;SDS011;38317;53.084;6.960;2022-09-09T16:18:47;0.98;;;0.30;;
52386;SDS011;38317;53.084;6.960;2022-09-09T16:21:34;1.75;;;0.40;;
52386;SDS011;38317;53.084;6.960;2022-09-09T16:24:12;2.35;;;0.30;;
52386;SDS011;38317;53.084;6.960;2022-09-09T16:26:41;1.38;;;0.35;;
52386;SDS011;38317;53.084;6.960;2022-09-09T16:29:10;1.50;;;0.52;;
52386;SDS011;38317;53.084;6.960;2022-09-09T16:31:37;1.35;;;0.40;;
52386;SDS011;38317;53.084;6.960;2022-09-09T16:34:03;2.65;;;0.30;;
52386;SDS011;38317;53.084;6.960;2022-09-09T16:36:29;1.42;;;0.40;;
52386;SDS011;38317;53.084;6.960;2022-09-09T16:38:59;3.83;;;0.57;;
52386;SDS011;38317;53.084;6.960;2022-09-09T16:41:27;1.90;;;0.40;;
52386;SDS011;38317;53.084;6.960;2022-09-09T16:43:55;1.15;;;0.40;;
52386;SDS011;38317;53.084;6.960;2022-09-09T16:46:23;2.47;;;0.55;;
52386;SDS011;38317;53.084;6.960;2022-09-09T16:48:49;1.90;;;0.30;;
52386;SDS011;38317;53.084;6.960;2022-09-09T16:51:20;1.50;;;0.30;;
52386;SDS011;38317;53.084;6.960;2022-09-09T16:53:49;2.72;;;0.40;;
52386;SDS011;38317;53.084;6.960;2022-09-09T16:56:20;0.93;;;0.43;;
52386;SDS011;38317;53.084;6.960;2022-09-09T16:58:54;0.50;;;0.40;;
52386;SDS011;38317;53.084;6.960;2022-09-09T17:01:22;2.05;;;0.70;;
52386;SDS011;38317;53.084;6.960;2022-09-09T17:03:52;2.75;;;0.40;;
52386;SDS011;38317;53.084;6.960;2022-09-09T17:06:18;1.50;;;0.50;;
52386;SDS011;38317;53.084;6.960;2022-09-09T17:08:44;0.57;;;0.38;;
52386;SDS011;38317;53.084;6.960;2022-09-09T17:11:11;2.72;;;0.70;;
52386;SDS011;38317;53.084;6.960;2022-09-09T17:13:41;1.98;;;0.43;;
52386;SDS011;38317;53.084;6.960;2022-09-09T17:16:08;1.30;;;0.30;;
52386;SDS011;38317;53.084;6.960;2022-09-09T17:18:34;2.72;;;0.40;;
52386;SDS011;38317;53.084;6.960;2022-09-09T17:21:02;1.75;;;0.45;;
52386;SDS011;38317;53.084;6.960;2022-09-09T17:23:34;2.15;;;0.43;;
52386;SDS011;38317;53.084;6.960;2022-09-09T17:26:03;2.83;;;0.52;;
52386;SDS011;38317;53.084;6.960;2022-09-09T17:28:33;0.95;;;0.40;;
52386;SDS011;38317;53.084;6.960;2022-09-09T17:31:00;1.33;;;0.50;;
52386;SDS011;38317;53.084;6.960;2022-09-09T17:33:31;1.48;;;0.30;;